Time;durP1;ratioP1;P1;durP2;ratioP2;P2;SDS_P1;SDS_P2;PMS_P1;PMS_P2;Temp;Humidity;BMP_temperature;BMP_pressure;BME280_temperature;BME280_humidity;BME280_pressure;Samples;Min_cycle;Max_cycle;Signal;HPM_P1;HPM_P2
2021/06/15 00:00:42;;;;;;;8.98;5.32;;;;;;;;;;5060120;28;21082;-72
2021/06/15 00:03:08;;;;;;;8.70;4.53;;;;;;;;;;5070772;28;20200;-72
2021/06/15 00:05:33;;;;;;;5.90;4.28;;;;;;;;;;5079279;28;20193;-72
2021/06/15 00:07:58;;;;;;;6.25;4.50;;;;;;;;;;5078429;28;20210;-72
2021/06/15 00:10:24;;;;;;;5.53;4.15;;;;;;;;;;5087648;28;20164;-71
2021/06/15 00:12:50;;;;;;;12.23;5.75;;;;;;;;;;5079464;28;20193;-71
2021/06/15 00:15:16;;;;;;;7.18;4.70;;;;;;;;;;5080019;28;20651;-71
2021/06/15 00:17:42;;;;;;;6.78;4.43;;;;;;;;;;5057594;28;20192;-71
2021/06/15 00:20:07;;;;;;;7.32;4.43;;;;;;;;;;5061488;28;20240;-71
2021/06/15 00:22:33;;;;;;;4.82;4.32;;;;;;;;;;5079419;28;20169;-71
2021/06/15 00:24:58;;;;;;;5.30;3.72;;;;;;;;;;5077340;28;20322;-71
2021/06/15 00:27:24;;;;;;;7.68;3.97;;;;;;;;;;5074300;28;20201;-73
2021/06/15 00:29:49;;;;;;;5.65;4.18;;;;;;;;;;5081015;28;20226;-71
2021/06/15 00:32:14;;;;;;;10.25;4.07;;;;;;;;;;5067293;28;20169;-71
2021/06/15 00:34:39;;;;;;;7.03;3.63;;;;;;;;;;5053498;28;20344;-72
2021/06/15 00:37:05;;;;;;;6.50;3.45;;;;;;;;;;5053675;28;20180;-71
2021/06/15 00:39:30;;;;;;;8.73;3.88;;;;;;;;;;5060827;28;20285;-72
2021/06/15 00:41:55;;;;;;;6.18;3.97;;;;;;;;;;5051300;28;20174;-71
2021/06/15 00:44:20;;;;;;;7.35;3.83;;;;;;;;;;5050314;28;20216;-72
2021/06/15 00:46:46;;;;;;;4.65;3.20;;;;;;;;;;5050296;28;20177;-71
2021/06/15 00:49:13;;;;;;;3.45;3.10;;;;;;;;;;5046937;28;20213;-72
2021/06/15 00:51:38;;;;;;;4.15;3.28;;;;;;;;;;5055615;28;20177;-71
2021/06/15 00:54:04;;;;;;;6.32;3.10;;;;;;;;;;5052420;28;20212;-71
2021/06/15 00:56:29;;;;;;;4.07;3.00;;;;;;;;;;5047694;28;20260;-71
2021/06/15 00:58:54;;;;;;;5.78;3.60;;;;;;;;;;5050305;28;20180;-72
2021/06/15 01:01:19;;;;;;;9.77;3.22;;;;;;;;;;5055253;28;20186;-72
2021/06/15 01:03:45;;;;;;;6.63;3.00;;;;;;;;;;5050201;28;20675;-72
2021/06/15 01:06:12;;;;;;;4.68;3.00;;;;;;;;;;5055736;28;20631;-72
2021/06/15 01:08:40;;;;;;;5.88;2.95;;;;;;;;;;5054302;28;20701;-71
2021/06/15 01:11:05;;;;;;;3.42;2.47;;;;;;;;;;5049214;28;20239;-71
2021/06/15 01:13:40;;;;;;;3.97;2.83;;;;;;;;;;5050087;28;20204;-72
2021/06/15 01:16:26;;;;;;;3.83;2.78;;;;;;;;;;5052223;28;20511;-72
2021/06/15 01:18:53;;;;;;;6.72;2.72;;;;;;;;;;5050561;28;20184;-71
2021/06/15 01:21:19;;;;;;;6.00;3.33;;;;;;;;;;5050611;28;20181;-71
2021/06/15 01:23:54;;;;;;;5.18;2.55;;;;;;;;;;5049957;28;20250;-73
2021/06/15 01:26:22;;;;;;;5.28;2.72;;;;;;;;;;5053163;28;20186;-71
2021/06/15 01:28:49;;;;;;;4.80;2.80;;;;;;;;;;5055501;28;20695;-71
2021/06/15 01:31:27;;;;;;;5.07;2.50;;;;;;;;;;5062932;28;20172;-71
2021/06/15 01:33:54;;;;;;;6.65;2.90;;;;;;;;;;5051159;28;20196;-73
2021/06/15 01:36:20;;;;;;;3.40;2.40;;;;;;;;;;5056699;28;20203;-71
2021/06/15 01:38:49;;;;;;;3.72;2.92;;;;;;;;;;5054560;28;20292;-71
2021/06/15 01:41:16;;;;;;;4.10;2.60;;;;;;;;;;5061835;28;20181;-71
2021/06/15 01:43:43;;;;;;;5.05;3.35;;;;;;;;;;5056396;28;20204;-71
2021/06/15 01:46:10;;;;;;;5.10;3.72;;;;;;;;;;5055356;28;20559;-72
2021/06/15 01:48:36;;;;;;;3.72;2.97;;;;;;;;;;5053150;28;20641;-72
2021/06/15 01:51:02;;;;;;;5.10;3.05;;;;;;;;;;5061469;28;20255;-71
2021/06/15 01:53:28;;;;;;;3.97;3.13;;;;;;;;;;5055210;28;20753;-71
2021/06/15 01:55:54;;;;;;;4.13;2.78;;;;;;;;;;5064652;28;20892;-72
2021/06/15 01:58:21;;;;;;;6.03;2.40;;;;;;;;;;5050826;28;20181;-71
2021/06/15 02:00:47;;;;;;;4.78;2.28;;;;;;;;;;5054450;28;20294;-73
2021/06/15 02:03:13;;;;;;;4.53;2.20;;;;;;;;;;5052645;28;20196;-71
2021/06/15 02:05:40;;;;;;;2.58;2.10;;;;;;;;;;5054052;28;20535;-72
2021/06/15 02:08:07;;;;;;;2.05;1.90;;;;;;;;;;5053542;28;20212;-72
2021/06/15 02:10:32;;;;;;;2.85;1.75;;;;;;;;;;5051364;28;20212;-71
2021/06/15 02:12:57;;;;;;;2.83;1.85;;;;;;;;;;5054461;28;20581;-72
2021/06/15 02:15:24;;;;;;;3.63;1.60;;;;;;;;;;5056024;28;20188;-72
2021/06/15 02:17:50;;;;;;;2.88;1.52;;;;;;;;;;5054088;28;20185;-72
2021/06/15 02:20:16;;;;;;;4.85;1.80;;;;;;;;;;5053403;28;20276;-72
2021/06/15 02:22:46;;;;;;;4.07;1.48;;;;;;;;;;5054078;28;20181;-72
2021/06/15 02:25:11;;;;;;;1.92;1.48;;;;;;;;;;5054370;28;20182;-72
2021/06/15 02:27:37;;;;;;;2.53;1.30;;;;;;;;;;5057332;28;20553;-71
2021/06/15 02:30:04;;;;;;;2.22;1.42;;;;;;;;;;5056192;28;20646;-71
2021/06/15 02:32:34;;;;;;;2.10;1.40;;;;;;;;;;5052057;28;20193;-72
2021/06/15 02:35:00;;;;;;;1.65;1.30;;;;;;;;;;5058864;28;20201;-72
2021/06/15 02:37:29;;;;;;;3.78;1.38;;;;;;;;;;5056537;28;20178;-72
2021/06/15 02:39:55;;;;;;;1.98;1.20;;;;;;;;;;5060463;28;20280;-72
2021/06/15 02:42:21;;;;;;;4.88;1.80;;;;;;;;;;5046896;28;20691;-72
2021/06/15 02:44:47;;;;;;;2.85;1.88;;;;;;;;;;5056374;28;20246;-72
2021/06/15 02:47:13;;;;;;;3.42;2.20;;;;;;;;;;5056939;28;20177;-72
2021/06/15 02:49:42;;;;;;;3.75;1.90;;;;;;;;;;5059052;28;20177;-72
2021/06/15 02:52:30;;;;;;;5.03;2.42;;;;;;;;;;5056046;28;20185;-72
2021/06/15 02:55:09;;;;;;;3.58;1.90;;;;;;;;;;5070862;28;20561;-72
2021/06/15 02:57:34;;;;;;;3.28;2.25;;;;;;;;;;5057053;28;20571;-72
2021/06/15 03:00:00;;;;;;;3.03;2.10;;;;;;;;;;5063912;28;20176;-72
2021/06/15 03:02:28;;;;;;;5.63;2.03;;;;;;;;;;5054909;28;20182;-72
2021/06/15 03:04:53;;;;;;;3.88;2.30;;;;;;;;;;5060555;28;20215;-72
2021/06/15 03:07:18;;;;;;;3.13;2.10;;;;;;;;;;5055648;28;20562;-72
2021/06/15 03:09:44;;;;;;;3.28;2.05;;;;;;;;;;5055458;28;20208;-72
2021/06/15 03:12:12;;;;;;;4.78;2.80;;;;;;;;;;5053858;28;20173;-72
2021/06/15 03:14:38;;;;;;;2.95;2.30;;;;;;;;;;5053114;28;20201;-72
2021/06/15 03:17:05;;;;;;;3.60;2.20;;;;;;;;;;5057559;28;20177;-72
2021/06/15 03:19:43;;;;;;;6.03;2.30;;;;;;;;;;5054682;28;20180;-72
2021/06/15 03:22:13;;;;;;;5.25;2.58;;;;;;;;;;5053668;28;20172;-72
2021/06/15 03:24:42;;;;;;;4.32;2.28;;;;;;;;;;5059901;28;20213;-72
2021/06/15 03:27:09;;;;;;;4.35;2.42;;;;;;;;;;5055976;28;21081;-72
2021/06/15 03:29:36;;;;;;;3.42;2.20;;;;;;;;;;5052137;28;20570;-72
2021/06/15 03:32:04;;;;;;;4.00;1.55;;;;;;;;;;5051181;28;20700;-72
2021/06/15 03:34:30;;;;;;;3.75;1.90;;;;;;;;;;5071583;28;20220;-72
2021/06/15 03:36:56;;;;;;;1.60;1.27;;;;;;;;;;5072356;28;20173;-72
2021/06/15 03:39:22;;;;;;;3.90;1.70;;;;;;;;;;5071405;28;20254;-72
2021/06/15 03:41:50;;;;;;;2.38;1.27;;;;;;;;;;5057778;28;20271;-72
2021/06/15 03:44:18;;;;;;;2.42;1.25;;;;;;;;;;5053020;28;20214;-71
2021/06/15 03:46:44;;;;;;;3.10;1.35;;;;;;;;;;5055744;28;20278;-72
2021/06/15 03:49:11;;;;;;;6.65;1.50;;;;;;;;;;5055508;28;20212;-72
2021/06/15 03:51:38;;;;;;;4.15;1.92;;;;;;;;;;5052305;28;20176;-72
2021/06/15 03:54:10;;;;;;;4.07;1.65;;;;;;;;;;5051449;28;20265;-72
2021/06/15 03:56:37;;;;;;;3.05;1.25;;;;;;;;;;5054001;28;20168;-72
2021/06/15 03:59:05;;;;;;;2.75;1.73;;;;;;;;;;5051551;28;20561;-72
2021/06/15 04:01:32;;;;;;;2.40;1.45;;;;;;;;;;5054787;28;21096;-72
2021/06/15 04:03:59;;;;;;;2.92;1.40;;;;;;;;;;5051566;28;20767;-72
2021/06/15 04:06:24;;;;;;;4.72;1.20;;;;;;;;;;5061695;28;20740;-72
2021/06/15 04:08:49;;;;;;;2.72;1.10;;;;;;;;;;5053793;28;20249;-72
2021/06/15 04:11:15;;;;;;;2.13;0.75;;;;;;;;;;5058425;28;20559;-72
2021/06/15 04:13:41;;;;;;;2.50;0.90;;;;;;;;;;5052336;28;20916;-72
2021/06/15 04:16:07;;;;;;;3.42;1.23;;;;;;;;;;5053824;28;20176;-72
2021/06/15 04:18:34;;;;;;;2.25;1.00;;;;;;;;;;5051616;28;20185;-72
2021/06/15 04:21:03;;;;;;;2.55;0.95;;;;;;;;;;5058927;28;20687;-71
2021/06/15 04:23:30;;;;;;;1.27;0.77;;;;;;;;;;5056459;28;20212;-72
2021/06/15 04:25:56;;;;;;;0.90;0.75;;;;;;;;;;5052109;28;20246;-72
2021/06/15 04:28:21;;;;;;;2.38;1.00;;;;;;;;;;5053564;28;20228;-72
2021/06/15 04:30:47;;;;;;;5.95;1.52;;;;;;;;;;5061059;28;20188;-72
2021/06/15 04:33:13;;;;;;;2.33;0.90;;;;;;;;;;5057746;28;20276;-72
2021/06/15 04:35:40;;;;;;;3.03;1.17;;;;;;;;;;5065530;28;20177;-73
2021/06/15 04:38:08;;;;;;;3.90;1.40;;;;;;;;;;5052141;28;20187;-72
2021/06/15 04:40:41;;;;;;;3.80;1.17;;;;;;;;;;5062468;28;20224;-72
2021/06/15 04:43:28;;;;;;;4.45;1.20;;;;;;;;;;5051221;28;20250;-72
2021/06/15 04:45:56;;;;;;;2.95;1.05;;;;;;;;;;5052930;28;20204;-72
2021/06/15 04:48:32;;;;;;;4.20;1.30;;;;;;;;;;5058354;28;20207;-72
2021/06/15 04:50:59;;;;;;;4.53;1.55;;;;;;;;;;5075977;28;20173;-72
2021/06/15 04:53:25;;;;;;;3.10;1.02;;;;;;;;;;5073864;28;20275;-72
2021/06/15 04:55:51;;;;;;;3.90;1.13;;;;;;;;;;5075691;28;20177;-72
2021/06/15 04:58:17;;;;;;;3.70;1.10;;;;;;;;;;5076317;28;20185;-71
2021/06/15 05:00:43;;;;;;;3.22;0.90;;;;;;;;;;5076928;28;20169;-71
2021/06/15 05:03:08;;;;;;;1.73;0.90;;;;;;;;;;5081460;28;20300;-71
2021/06/15 05:05:34;;;;;;;4.13;1.50;;;;;;;;;;5089493;28;20188;-72
2021/06/15 05:08:00;;;;;;;4.53;1.00;;;;;;;;;;5092028;28;20209;-71
2021/06/15 05:10:29;;;;;;;5.05;1.17;;;;;;;;;;5095809;28;20184;-73
2021/06/15 05:12:54;;;;;;;4.90;1.15;;;;;;;;;;5075320;28;20648;-71
2021/06/15 05:15:22;;;;;;;5.15;1.20;;;;;;;;;;5061820;28;20306;-72
2021/06/15 05:17:48;;;;;;;6.05;1.80;;;;;;;;;;5059461;28;20193;-72
2021/06/15 05:20:14;;;;;;;3.45;1.23;;;;;;;;;;5065735;28;20183;-72
2021/06/15 05:22:43;;;;;;;3.55;1.23;;;;;;;;;;5056492;28;20693;-72
2021/06/15 05:25:09;;;;;;;1.58;1.02;;;;;;;;;;5063868;28;20169;-72
2021/06/15 05:27:35;;;;;;;4.45;1.27;;;;;;;;;;5059484;28;20255;-72
2021/06/15 05:30:00;;;;;;;4.63;1.35;;;;;;;;;;5062981;28;20229;-72
2021/06/15 05:32:29;;;;;;;5.57;1.33;;;;;;;;;;5063307;28;20777;-72
2021/06/15 05:34:54;;;;;;;6.18;1.60;;;;;;;;;;5060244;28;20189;-71
2021/06/15 05:37:19;;;;;;;5.10;1.52;;;;;;;;;;5058756;28;20240;-72
2021/06/15 05:39:45;;;;;;;4.35;1.58;;;;;;;;;;5069060;28;20188;-72
2021/06/15 05:42:12;;;;;;;3.17;1.00;;;;;;;;;;5056522;28;20644;-72
2021/06/15 05:44:37;;;;;;;2.03;0.80;;;;;;;;;;5059379;28;20294;-72
2021/06/15 05:47:02;;;;;;;1.80;1.00;;;;;;;;;;5058820;28;20184;-72
2021/06/15 05:49:28;;;;;;;3.45;1.00;;;;;;;;;;5056987;28;20196;-73
2021/06/15 05:51:58;;;;;;;5.10;1.10;;;;;;;;;;5058176;28;20200;-72
2021/06/15 05:54:23;;;;;;;4.90;1.30;;;;;;;;;;5061152;28;20547;-72
2021/06/15 05:56:48;;;;;;;5.90;1.17;;;;;;;;;;5069203;28;20188;-72
2021/06/15 05:59:13;;;;;;;6.53;2.50;;;;;;;;;;5060132;28;20753;-72
2021/06/15 06:01:41;;;;;;;4.80;1.20;;;;;;;;;;5063021;28;20468;-72
2021/06/15 06:04:08;;;;;;;8.07;2.50;;;;;;;;;;5056531;28;20207;-72
2021/06/15 06:09:17;;;;;;;8.55;1.83;;;;;;;;;;5058554;28;20268;-72
2021/06/15 06:11:43;;;;;;;9.63;1.85;;;;;;;;;;5062135;28;22093;-72
2021/06/15 06:14:08;;;;;;;5.85;1.50;;;;;;;;;;5055459;28;20679;-73
2021/06/15 06:16:35;;;;;;;7.60;1.48;;;;;;;;;;5056730;28;20177;-73
2021/06/15 06:19:02;;;;;;;4.07;1.50;;;;;;;;;;5052813;28;20267;-73
2021/06/15 06:21:28;;;;;;;3.72;1.20;;;;;;;;;;5060122;28;20181;-73
2021/06/15 06:23:53;;;;;;;3.88;1.02;;;;;;;;;;5055045;28;20223;-73
2021/06/15 06:26:18;;;;;;;3.88;1.10;;;;;;;;;;5051914;28;20565;-73
2021/06/15 06:28:43;;;;;;;6.63;2.30;;;;;;;;;;5054589;28;20208;-73
2021/06/15 06:31:09;;;;;;;7.55;1.20;;;;;;;;;;5057909;28;20287;-73
2021/06/15 06:33:34;;;;;;;3.60;1.05;;;;;;;;;;5053346;28;20761;-73
2021/06/15 06:35:59;;;;;;;4.88;0.90;;;;;;;;;;5056592;28;20248;-74
2021/06/15 06:38:24;;;;;;;5.03;1.08;;;;;;;;;;5053118;28;20560;-74
2021/06/15 06:40:51;;;;;;;3.85;0.85;;;;;;;;;;5057983;28;20188;-74
2021/06/15 06:43:16;;;;;;;4.15;0.82;;;;;;;;;;5054867;28;20209;-73
2021/06/15 06:45:41;;;;;;;3.35;1.00;;;;;;;;;;5057428;28;20181;-73
2021/06/15 06:48:08;;;;;;;5.53;1.63;;;;;;;;;;5053411;28;20282;-73
2021/06/15 06:50:33;;;;;;;4.53;1.20;;;;;;;;;;5062861;28;20182;-73
2021/06/15 06:52:59;;;;;;;2.78;1.00;;;;;;;;;;5050342;28;20166;-73
2021/06/15 06:55:24;;;;;;;2.67;1.02;;;;;;;;;;5060217;28;20701;-73
2021/06/15 06:57:49;;;;;;;5.55;1.42;;;;;;;;;;5054430;28;20200;-73
2021/06/15 07:00:15;;;;;;;4.95;1.15;;;;;;;;;;5054677;28;20188;-73
2021/06/15 07:02:40;;;;;;;3.95;1.13;;;;;;;;;;5054891;28;20181;-73
2021/06/15 07:05:06;;;;;;;2.67;0.80;;;;;;;;;;5052185;28;20204;-73
2021/06/15 07:07:32;;;;;;;2.90;1.08;;;;;;;;;;5057993;28;20254;-73
2021/06/15 07:09:57;;;;;;;3.92;0.90;;;;;;;;;;5056277;28;20169;-73
2021/06/15 07:12:22;;;;;;;2.80;0.88;;;;;;;;;;5053168;28;20189;-73
2021/06/15 07:14:47;;;;;;;3.58;0.90;;;;;;;;;;5059980;28;20208;-71
2021/06/15 07:17:12;;;;;;;5.23;1.10;;;;;;;;;;5052985;28;20188;-72
2021/06/15 07:19:38;;;;;;;2.85;1.05;;;;;;;;;;5051895;28;20417;-72
2021/06/15 07:22:03;;;;;;;4.85;0.95;;;;;;;;;;5053136;28;20182;-72
2021/06/15 07:24:29;;;;;;;5.55;1.10;;;;;;;;;;5049959;28;20208;-72
2021/06/15 07:26:54;;;;;;;4.25;1.00;;;;;;;;;;5052286;28;20176;-71
2021/06/15 07:29:19;;;;;;;5.82;1.20;;;;;;;;;;5052913;28;20231;-72
2021/06/15 07:31:44;;;;;;;4.70;1.00;;;;;;;;;;5055153;28;20193;-72
2021/06/15 07:34:09;;;;;;;5.05;1.10;;;;;;;;;;5051548;28;20204;-72
2021/06/15 07:36:35;;;;;;;2.87;1.70;;;;;;;;;;5051981;28;20189;-72
2021/06/15 07:39:00;;;;;;;2.63;1.15;;;;;;;;;;5053928;28;20444;-72
2021/06/15 07:41:25;;;;;;;3.35;0.80;;;;;;;;;;5057791;28;20182;-72
2021/06/15 07:43:50;;;;;;;4.70;1.10;;;;;;;;;;5054637;28;20694;-72
2021/06/15 07:46:16;;;;;;;1.35;0.77;;;;;;;;;;5051730;28;21072;-72
2021/06/15 07:48:41;;;;;;;4.20;1.10;;;;;;;;;;5051740;28;20205;-72
2021/06/15 07:51:06;;;;;;;5.63;1.08;;;;;;;;;;5053646;28;20168;-72
2021/06/15 07:53:31;;;;;;;3.00;0.70;;;;;;;;;;5053148;28;20553;-73
2021/06/15 07:55:56;;;;;;;3.42;0.93;;;;;;;;;;5051603;28;20686;-74
2021/06/15 07:58:22;;;;;;;2.00;0.83;;;;;;;;;;5051583;28;20208;-71
2021/06/15 08:00:47;;;;;;;2.13;0.73;;;;;;;;;;5050765;28;20433;-71
2021/06/15 08:03:12;;;;;;;2.13;0.75;;;;;;;;;;5053512;28;20213;-71
2021/06/15 08:05:37;;;;;;;3.50;0.77;;;;;;;;;;5055335;28;20179;-71
2021/06/15 08:08:03;;;;;;;4.35;0.80;;;;;;;;;;5060445;28;21009;-71
2021/06/15 08:10:28;;;;;;;4.68;0.90;;;;;;;;;;5056755;28;20216;-72
2021/06/15 08:12:54;;;;;;;3.50;0.68;;;;;;;;;;5054235;28;20177;-71
2021/06/15 08:15:19;;;;;;;3.10;0.70;;;;;;;;;;5057410;28;20570;-71
2021/06/15 08:17:45;;;;;;;2.47;0.60;;;;;;;;;;5053122;28;20224;-71
2021/06/15 08:20:10;;;;;;;4.78;1.05;;;;;;;;;;5053267;28;20185;-72
2021/06/15 08:22:36;;;;;;;3.08;0.90;;;;;;;;;;5053334;28;20185;-71
2021/06/15 08:25:01;;;;;;;2.75;0.80;;;;;;;;;;5053009;28;20261;-71
2021/06/15 08:27:27;;;;;;;4.65;1.23;;;;;;;;;;5054507;28;20634;-72
2021/06/15 08:29:52;;;;;;;2.33;0.80;;;;;;;;;;5056125;28;20267;-71
2021/06/15 08:32:17;;;;;;;3.20;1.00;;;;;;;;;;5055863;28;20536;-71
2021/06/15 08:34:42;;;;;;;2.95;1.10;;;;;;;;;;5058464;28;20472;-71
2021/06/15 08:37:07;;;;;;;2.57;0.87;;;;;;;;;;5053136;28;20226;-72
2021/06/15 08:39:33;;;;;;;2.90;0.83;;;;;;;;;;5051816;28;20863;-72
2021/06/15 08:41:58;;;;;;;1.92;0.70;;;;;;;;;;5051108;28;21225;-71
2021/06/15 08:44:23;;;;;;;5.47;0.82;;;;;;;;;;5056029;28;20570;-71
2021/06/15 08:46:48;;;;;;;2.92;0.50;;;;;;;;;;5059422;28;20189;-71
2021/06/15 08:49:14;;;;;;;1.87;0.63;;;;;;;;;;5050682;28;20216;-72
2021/06/15 08:51:40;;;;;;;3.50;0.63;;;;;;;;;;5053309;28;20418;-72
2021/06/15 08:54:06;;;;;;;2.65;0.88;;;;;;;;;;5050343;28;20674;-72
2021/06/15 08:56:32;;;;;;;2.88;0.70;;;;;;;;;;5055033;28;20565;-72
2021/06/15 08:59:17;;;;;;;3.80;0.90;;;;;;;;;;5052783;28;20201;-73
2021/06/15 09:01:44;;;;;;;3.25;1.65;;;;;;;;;;5062752;28;20244;-72
2021/06/15 09:04:09;;;;;;;5.25;0.90;;;;;;;;;;5050251;28;20197;-72
2021/06/15 09:06:34;;;;;;;2.77;0.73;;;;;;;;;;5051284;28;20185;-72
2021/06/15 09:09:00;;;;;;;4.40;1.07;;;;;;;;;;5060158;28;20453;-72
2021/06/15 09:11:26;;;;;;;4.43;0.93;;;;;;;;;;5051591;28;20449;-73
2021/06/15 09:13:52;;;;;;;2.85;0.80;;;;;;;;;;5052438;28;20279;-72
2021/06/15 09:16:33;;;;;;;3.08;0.70;;;;;;;;;;5053624;28;20184;-72
2021/06/15 09:18:59;;;;;;;2.47;0.93;;;;;;;;;;5056627;28;20971;-72
2021/06/15 09:21:28;;;;;;;1.05;0.65;;;;;;;;;;5066636;28;21785;-73
2021/06/15 09:24:02;;;;;;;1.20;0.40;;;;;;;;;;5064966;28;20204;-72
2021/06/15 09:26:47;;;;;;;1.50;0.60;;;;;;;;;;5056655;28;20195;-72
2021/06/15 09:29:12;;;;;;;2.55;0.80;;;;;;;;;;5054431;28;20240;-72
2021/06/15 09:31:50;;;;;;;2.30;0.70;;;;;;;;;;5056581;28;20196;-71
2021/06/15 09:34:15;;;;;;;2.40;0.70;;;;;;;;;;5060180;28;20790;-72
2021/06/15 09:36:40;;;;;;;4.13;0.90;;;;;;;;;;5072096;28;20194;-73
2021/06/15 09:39:05;;;;;;;4.03;1.30;;;;;;;;;;5078409;28;20215;-72
2021/06/15 09:41:34;;;;;;;5.03;1.13;;;;;;;;;;5078811;28;21941;-72
2021/06/15 09:44:13;;;;;;;3.95;1.63;;;;;;;;;;5076969;28;20279;-73
2021/06/15 09:46:47;;;;;;;2.67;1.23;;;;;;;;;;5078398;28;20177;-72
2021/06/15 09:49:13;;;;;;;3.13;1.15;;;;;;;;;;5075842;28;20208;-72
2021/06/15 09:51:41;;;;;;;3.83;1.13;;;;;;;;;;5080979;28;22108;-73
2021/06/15 09:54:07;;;;;;;4.93;1.20;;;;;;;;;;5075876;28;20209;-72
2021/06/15 09:56:32;;;;;;;3.60;1.50;;;;;;;;;;5076181;28;20258;-72
2021/06/15 09:59:00;;;;;;;1.75;0.88;;;;;;;;;;5053815;28;20223;-73
2021/06/15 10:01:39;;;;;;;2.90;1.20;;;;;;;;;;5062814;28;20193;-73
2021/06/15 10:04:07;;;;;;;5.63;1.33;;;;;;;;;;5058878;28;20211;-73
2021/06/15 10:06:33;;;;;;;5.13;0.88;;;;;;;;;;5064177;28;20264;-72
2021/06/15 10:09:00;;;;;;;9.23;1.85;;;;;;;;;;5068805;28;20228;-73
2021/06/15 10:11:25;;;;;;;3.15;1.00;;;;;;;;;;5063957;28;20284;-72
2021/06/15 10:13:50;;;;;;;3.00;1.57;;;;;;;;;;5056892;28;20269;-73
2021/06/15 10:16:15;;;;;;;3.92;1.15;;;;;;;;;;5064944;28;20533;-73
2021/06/15 10:18:41;;;;;;;3.47;1.00;;;;;;;;;;5053731;28;20721;-73
2021/06/15 10:21:07;;;;;;;3.67;1.40;;;;;;;;;;5059685;28;20268;-73
2021/06/15 10:23:32;;;;;;;1.73;0.80;;;;;;;;;;5054195;28;20449;-75
2021/06/15 10:25:58;;;;;;;5.07;1.50;;;;;;;;;;5061563;28;20189;-76
2021/06/15 10:28:24;;;;;;;5.43;1.33;;;;;;;;;;5055659;28;20290;-76
2021/06/15 10:30:49;;;;;;;4.60;1.13;;;;;;;;;;5054488;28;20177;-77
2021/06/15 10:33:22;;;;;;;5.77;2.97;;;;;;;;;;5055457;28;20277;-75
2021/06/15 10:35:48;;;;;;;4.95;1.70;;;;;;;;;;5055205;28;20181;-74
2021/06/15 10:38:17;;;;;;;3.65;1.10;;;;;;;;;;5057764;28;20234;-75
2021/06/15 10:40:47;;;;;;;4.47;1.65;;;;;;;;;;5061727;28;20185;-74
2021/06/15 10:43:15;;;;;;;5.70;2.00;;;;;;;;;;5054922;28;20209;-74
2021/06/15 10:45:41;;;;;;;3.08;1.20;;;;;;;;;;5056932;28;20670;-72
2021/06/15 10:48:06;;;;;;;4.00;1.30;;;;;;;;;;5055770;28;20217;-75
2021/06/15 10:50:42;;;;;;;5.37;1.10;;;;;;;;;;5056323;28;20184;-75
2021/06/15 10:53:09;;;;;;;7.72;2.10;;;;;;;;;;5053956;28;20958;-75
2021/06/15 10:55:41;;;;;;;4.20;1.45;;;;;;;;;;5060086;28;20173;-77
2021/06/15 10:58:06;;;;;;;4.53;1.30;;;;;;;;;;5058202;28;20203;-74
2021/06/15 11:00:41;;;;;;;6.57;1.67;;;;;;;;;;5055496;28;20323;-73
2021/06/15 11:03:16;;;;;;;7.13;1.80;;;;;;;;;;5055865;28;21017;-76
2021/06/15 11:05:43;;;;;;;5.10;1.50;;;;;;;;;;5060084;28;20188;-75
2021/06/15 11:08:17;;;;;;;8.32;1.60;;;;;;;;;;5062150;28;20196;-74
2021/06/15 11:10:45;;;;;;;4.53;1.25;;;;;;;;;;5051350;28;20183;-74
2021/06/15 11:13:10;;;;;;;3.92;1.38;;;;;;;;;;5051036;28;20211;-74
2021/06/15 11:15:35;;;;;;;2.23;0.90;;;;;;;;;;5062632;28;20181;-75
2021/06/15 11:18:12;;;;;;;3.60;1.13;;;;;;;;;;5055178;28;20549;-74
2021/06/15 11:20:39;;;;;;;4.85;1.40;;;;;;;;;;5057349;28;20437;-76
2021/06/15 11:23:16;;;;;;;4.88;1.15;;;;;;;;;;5052698;28;20204;-75
2021/06/15 11:25:44;;;;;;;4.93;1.73;;;;;;;;;;5056454;28;20271;-74
2021/06/15 11:28:28;;;;;;;2.78;1.30;;;;;;;;;;5052167;28;20316;-75
2021/06/15 11:31:13;;;;;;;4.15;1.50;;;;;;;;;;5060019;28;20201;-76
2021/06/15 11:33:56;;;;;;;6.13;1.77;;;;;;;;;;5053654;28;20321;-75
2021/06/15 11:36:37;;;;;;;5.15;1.50;;;;;;;;;;5055030;28;20197;-77
2021/06/15 11:39:21;;;;;;;5.72;1.48;;;;;;;;;;5058017;28;20671;-74
2021/06/15 11:42:05;;;;;;;4.47;1.50;;;;;;;;;;5054847;28;20181;-74
2021/06/15 11:44:51;;;;;;;5.10;2.10;;;;;;;;;;5053041;28;20280;-75
2021/06/15 11:47:29;;;;;;;4.15;1.83;;;;;;;;;;5052137;28;20200;-74
2021/06/15 11:50:07;;;;;;;4.47;1.63;;;;;;;;;;5059679;28;20255;-74
2021/06/15 11:52:33;;;;;;;4.25;1.17;;;;;;;;;;5047219;28;20242;-76
2021/06/15 11:54:58;;;;;;;3.80;1.38;;;;;;;;;;5051004;28;20196;-76
2021/06/15 11:57:24;;;;;;;5.38;1.45;;;;;;;;;;5052006;28;20745;-74
2021/06/15 11:59:49;;;;;;;4.30;1.30;;;;;;;;;;5060084;28;20597;-75
2021/06/15 12:02:17;;;;;;;8.13;1.50;;;;;;;;;;5054268;28;20169;-74
2021/06/15 12:05:01;;;;;;;4.30;1.42;;;;;;;;;;5052763;28;20645;-75
2021/06/15 12:07:26;;;;;;;4.43;1.40;;;;;;;;;;5059346;28;20184;-74
2021/06/15 12:10:15;;;;;;;4.10;1.73;;;;;;;;;;5058689;28;20173;-75
2021/06/15 12:13:01;;;;;;;3.92;1.65;;;;;;;;;;5048878;28;20532;-74
2021/06/15 12:15:46;;;;;;;5.88;1.35;;;;;;;;;;5060102;28;20559;-75
2021/06/15 12:18:16;;;;;;;4.68;1.77;;;;;;;;;;5054099;28;20208;-75
2021/06/15 12:20:42;;;;;;;5.05;1.13;;;;;;;;;;5052154;28;20180;-76
2021/06/15 12:23:24;;;;;;;4.93;1.63;;;;;;;;;;5054052;28;20762;-74
2021/06/15 12:25:50;;;;;;;5.28;1.33;;;;;;;;;;5057897;28;20185;-75
2021/06/15 12:28:17;;;;;;;8.60;1.38;;;;;;;;;;5050599;28;20221;-75
2021/06/15 12:30:44;;;;;;;5.97;2.08;;;;;;;;;;5054903;28;20190;-74
2021/06/15 12:33:09;;;;;;;3.42;1.90;;;;;;;;;;5053116;28;20192;-74
2021/06/15 12:35:35;;;;;;;6.05;1.63;;;;;;;;;;5055920;28;20221;-76
2021/06/15 12:38:13;;;;;;;5.35;1.58;;;;;;;;;;5055089;28;20181;-74
2021/06/15 12:40:39;;;;;;;6.43;2.00;;;;;;;;;;5059175;28;20201;-76
2021/06/15 12:43:06;;;;;;;5.38;1.60;;;;;;;;;;5051887;28;20196;-76
2021/06/15 12:45:35;;;;;;;8.20;1.70;;;;;;;;;;5058661;28;20260;-76
2021/06/15 12:48:01;;;;;;;4.95;1.92;;;;;;;;;;5054983;28;20209;-76
2021/06/15 12:50:27;;;;;;;4.78;1.98;;;;;;;;;;5062953;28;20267;-76
2021/06/15 12:53:02;;;;;;;2.83;1.17;;;;;;;;;;5050609;28;20177;-75
2021/06/15 12:55:28;;;;;;;7.03;1.42;;;;;;;;;;5056916;28;20179;-75
2021/06/15 12:57:59;;;;;;;5.95;1.40;;;;;;;;;;5050613;28;20200;-76
2021/06/15 13:00:24;;;;;;;3.70;1.45;;;;;;;;;;5049752;28;20235;-77
2021/06/15 13:02:50;;;;;;;6.70;1.50;;;;;;;;;;5051819;28;20180;-75
2021/06/15 13:05:17;;;;;;;6.50;1.35;;;;;;;;;;5052718;28;20547;-75
2021/06/15 13:07:53;;;;;;;7.25;1.58;;;;;;;;;;5052306;28;20219;-75
2021/06/15 13:10:19;;;;;;;5.22;1.35;;;;;;;;;;5050724;28;20175;-75
2021/06/15 13:12:45;;;;;;;3.63;0.95;;;;;;;;;;5061548;28;20177;-75
2021/06/15 13:15:14;;;;;;;5.03;1.25;;;;;;;;;;5054208;28;20302;-76
2021/06/15 13:17:40;;;;;;;3.47;1.23;;;;;;;;;;5050939;28;20204;-75
2021/06/15 13:20:10;;;;;;;6.30;1.33;;;;;;;;;;5055849;28;20285;-77
2021/06/15 13:22:43;;;;;;;3.72;1.10;;;;;;;;;;5052585;28;20177;-74
2021/06/15 13:25:09;;;;;;;3.53;1.10;;;;;;;;;;5085002;28;20173;-78
2021/06/15 13:27:37;;;;;;;10.98;2.40;;;;;;;;;;5063088;28;20219;-74
2021/06/15 13:30:08;;;;;;;3.42;1.10;;;;;;;;;;5060242;28;20290;-75
2021/06/15 13:32:33;;;;;;;5.25;1.30;;;;;;;;;;5063418;28;20776;-74
2021/06/15 13:35:04;;;;;;;3.33;1.23;;;;;;;;;;5070228;28;20201;-77
2021/06/15 13:37:30;;;;;;;2.40;1.10;;;;;;;;;;5081271;28;20177;-76
2021/06/15 13:39:55;;;;;;;4.93;1.13;;;;;;;;;;5088919;28;20193;-75
2021/06/15 13:42:22;;;;;;;5.15;1.70;;;;;;;;;;5080422;28;20268;-77
2021/06/15 13:44:59;;;;;;;6.18;1.30;;;;;;;;;;5077377;28;20200;-75
2021/06/15 13:47:24;;;;;;;5.90;1.20;;;;;;;;;;5070180;28;20180;-74
2021/06/15 13:49:49;;;;;;;3.20;1.20;;;;;;;;;;5055357;28;20236;-77
2021/06/15 13:52:15;;;;;;;5.03;1.37;;;;;;;;;;5053389;28;20262;-77
2021/06/15 13:54:40;;;;;;;3.80;1.17;;;;;;;;;;5054200;28;20274;-76
2021/06/15 13:57:05;;;;;;;3.93;1.10;;;;;;;;;;5056222;28;20585;-74
2021/06/15 13:59:30;;;;;;;3.97;1.10;;;;;;;;;;5057894;28;20188;-75
2021/06/15 14:01:55;;;;;;;3.05;1.08;;;;;;;;;;5064210;28;20462;-76
2021/06/15 14:04:21;;;;;;;3.17;1.17;;;;;;;;;;5055815;28;20670;-74
2021/06/15 14:06:47;;;;;;;8.90;1.30;;;;;;;;;;5054458;28;20934;-75
2021/06/15 14:09:12;;;;;;;6.28;1.55;;;;;;;;;;5055044;28;21082;-75
2021/06/15 14:11:39;;;;;;;4.03;1.10;;;;;;;;;;5055948;28;20295;-74
2021/06/15 14:14:04;;;;;;;3.97;1.20;;;;;;;;;;5059482;28;20747;-74
2021/06/15 14:16:29;;;;;;;4.57;1.30;;;;;;;;;;5061523;28;20188;-76
2021/06/15 14:18:54;;;;;;;2.38;1.00;;;;;;;;;;5053251;28;20184;-74
2021/06/15 14:21:19;;;;;;;2.97;0.98;;;;;;;;;;5054289;28;20205;-75
2021/06/15 14:23:45;;;;;;;3.17;1.20;;;;;;;;;;5053080;28;20217;-76
2021/06/15 14:26:10;;;;;;;2.10;1.10;;;;;;;;;;5055508;28;20492;-75
2021/06/15 14:28:35;;;;;;;3.33;1.23;;;;;;;;;;5054506;28;20196;-75
2021/06/15 14:31:00;;;;;;;4.30;1.40;;;;;;;;;;5057955;28;20584;-75
2021/06/15 14:33:26;;;;;;;3.80;1.00;;;;;;;;;;5056157;28;20204;-74
2021/06/15 14:35:51;;;;;;;3.67;1.30;;;;;;;;;;5053277;28;21013;-75
2021/06/15 14:38:17;;;;;;;5.37;1.10;;;;;;;;;;5057230;28;20438;-73
2021/06/15 14:40:43;;;;;;;4.00;1.20;;;;;;;;;;5060402;28;20458;-76
2021/06/15 14:43:08;;;;;;;3.70;1.30;;;;;;;;;;5057420;28;20192;-74
2021/06/15 14:45:33;;;;;;;2.83;0.90;;;;;;;;;;5053172;28;20211;-75
2021/06/15 14:47:58;;;;;;;5.60;2.15;;;;;;;;;;5057565;28;20204;-74